PWSweather.com
Personal Weather Stations
Station Observations
PWSLORIS
The Farm At Fox Bay, Loris, SC 29569

The Farm At Fox BayLoris, SC 29569

Lat: 34.067097, Lon: -78.86907

Elevation: 108

Station Type: Davis Vantage Pro2 with 24 hr. FARS and solar

http://www.lorisweather.com

High Low Average
Temperature 74.8°F23.8°C 46.9°F8.3°C 60.1°F15.6°C
Dew Point 53.3°F11.8°C 44.5°F6.9°C 49.0°F9.4°C
Winds 3.5 mph 5.6 kmh Calm Calm Calm SWCalm SW
Wind Gusts 12.7 mph20.4 kmh -- 2.0 mph3.2 kmh
Humidity 92% 39% 69%
Pressure 30.11 in1019.6 mb 30.00 in1015.9 mb -
Precipitation 0.00 in0.0 mm - -
Hour Temp Dew Point Humidity Winds Wind Gusts Pressure Precip Precip Rate Daily Precip Total
12:00 AM 55.6°F13.1°C 48.5°F9.2°C 77% 1.1 mph SSW1.8 kmh SSW 4.6 mph7.4 kmh 30.04 in1017.3 mb - 0.00 in0.0 mm 0.00 in0.0 mm
12:15 AM 54.9°F12.7°C 48.1°F8.9°C 78% Calm Calm -- 30.05 in1017.6 mb - 0.00 in0.0 mm 0.00 in0.0 mm
12:30 AM 54.6°F12.6°C 47.8°F8.8°C 78% Calm Calm -- 30.04 in1017.3 mb - 0.00 in0.0 mm 0.00 in0.0 mm
12:45 AM 54.4°F12.4°C 48.0°F8.9°C 79% Calm Calm -- 30.04 in1017.3 mb - 0.00 in0.0 mm 0.00 in0.0 mm
01:00 AM 54.4°F12.4°C 47.7°F8.7°C 78% Calm Calm -- 30.04 in1017.3 mb - 0.00 in0.0 mm 0.00 in0.0 mm
01:15 AM 54.2°F12.3°C 47.5°F8.6°C 78% Calm Calm -- 30.04 in1017.3 mb - 0.00 in0.0 mm 0.00 in0.0 mm
01:30 AM 53.8°F12.1°C 47.1°F8.4°C 78% Calm Calm -- 30.04 in1017.3 mb - 0.00 in0.0 mm 0.00 in0.0 mm
01:45 AM 53.5°F11.9°C 47.1°F8.4°C 79% Calm Calm -- 30.04 in1017.3 mb - 0.00 in0.0 mm 0.00 in0.0 mm
02:00 AM 53.4°F11.9°C 47.0°F8.3°C 79% Calm Calm -- 30.05 in1017.6 mb - 0.00 in0.0 mm 0.00 in0.0 mm
02:15 AM 53.9°F12.2°C 47.2°F8.4°C 78% Calm Calm -- 30.05 in1017.6 mb - 0.00 in0.0 mm 0.00 in0.0 mm
02:30 AM 53.2°F11.8°C 47.2°F8.4°C 80% Calm Calm -- 30.05 in1017.6 mb - 0.00 in0.0 mm 0.00 in0.0 mm
02:45 AM 52.4°F11.3°C 46.4°F8.0°C 80% Calm Calm -- 30.05 in1017.6 mb - 0.00 in0.0 mm 0.00 in0.0 mm
03:00 AM 51.4°F10.8°C 46.4°F8.0°C 83% Calm Calm -- 30.05 in1017.6 mb - 0.00 in0.0 mm 0.00 in0.0 mm
03:15 AM 51.4°F10.8°C 46.4°F8.0°C 83% Calm Calm -- 30.05 in1017.6 mb - 0.00 in0.0 mm 0.00 in0.0 mm
03:30 AM 51.0°F10.6°C 46.3°F7.9°C 84% Calm Calm -- 30.05 in1017.6 mb - 0.00 in0.0 mm 0.00 in0.0 mm
03:45 AM 50.8°F10.4°C 46.1°F7.8°C 84% Calm Calm -- 30.05 in1017.6 mb - 0.00 in0.0 mm 0.00 in0.0 mm
04:00 AM 50.6°F10.3°C 46.3°F7.9°C 85% Calm Calm -- 30.05 in1017.6 mb - 0.00 in0.0 mm 0.00 in0.0 mm
04:15 AM 51.1°F10.6°C 46.4°F8.0°C 84% Calm Calm -- 30.05 in1017.6 mb - 0.00 in0.0 mm 0.00 in0.0 mm
04:30 AM 50.1°F10.1°C 46.0°F7.8°C 86% Calm Calm -- 30.05 in1017.6 mb - 0.00 in0.0 mm 0.00 in0.0 mm
04:45 AM 48.5°F9.2°C 45.1°F7.3°C 88% Calm Calm -- 30.05 in1017.6 mb - 0.00 in0.0 mm 0.00 in0.0 mm
05:00 AM 47.5°F8.6°C 44.7°F7.1°C 90% Calm Calm -- 30.06 in1017.9 mb - 0.00 in0.0 mm 0.00 in0.0 mm
05:15 AM 47.3°F8.5°C 44.8°F7.1°C 91% Calm Calm -- 30.06 in1017.9 mb - 0.00 in0.0 mm 0.00 in0.0 mm
05:30 AM 47.3°F8.5°C 44.8°F7.1°C 91% Calm Calm -- 30.06 in1017.9 mb - 0.00 in0.0 mm 0.00 in0.0 mm
05:45 AM 47.0°F8.3°C 44.5°F6.9°C 91% Calm Calm -- 30.06 in1017.9 mb - 0.00 in0.0 mm 0.00 in0.0 mm
06:00 AM 46.9°F8.3°C 44.7°F7.1°C 92% Calm Calm -- 30.06 in1017.9 mb - 0.00 in0.0 mm 0.00 in0.0 mm
06:15 AM 47.8°F8.8°C 45.3°F7.4°C 91% Calm Calm -- 30.06 in1017.9 mb - 0.00 in0.0 mm 0.00 in0.0 mm
06:30 AM 47.4°F8.6°C 44.9°F7.2°C 91% Calm Calm -- 30.07 in1018.3 mb - 0.00 in0.0 mm 0.00 in0.0 mm
06:45 AM 47.2°F8.4°C 45.0°F7.2°C 92% Calm Calm -- 30.07 in1018.3 mb - 0.00 in0.0 mm 0.00 in0.0 mm
07:00 AM 47.5°F8.6°C 45.0°F7.2°C 91% Calm Calm -- 30.07 in1018.3 mb - 0.00 in0.0 mm 0.00 in0.0 mm
07:15 AM 47.8°F8.8°C 45.3°F7.4°C 91% Calm Calm -- 30.07 in1018.3 mb - 0.00 in0.0 mm 0.00 in0.0 mm
07:30 AM 48.8°F9.3°C 45.7°F7.6°C 89% Calm Calm -- 30.08 in1018.6 mb - 0.00 in0.0 mm 0.00 in0.0 mm
07:45 AM 51.4°F10.8°C 47.6°F8.7°C 87% Calm Calm -- 30.09 in1019.0 mb - 0.00 in0.0 mm 0.00 in0.0 mm
08:00 AM 52.0°F11.1°C 47.3°F8.5°C 84% Calm Calm -- 30.09 in1019.0 mb - 0.00 in0.0 mm 0.00 in0.0 mm
08:15 AM 51.7°F10.9°C 47.3°F8.5°C 85% Calm Calm -- 30.10 in1019.3 mb - 0.00 in0.0 mm 0.00 in0.0 mm
08:30 AM 51.4°F10.8°C 47.1°F8.4°C 85% Calm Calm -- 30.10 in1019.3 mb - 0.00 in0.0 mm 0.00 in0.0 mm
08:45 AM 51.7°F10.9°C 47.7°F8.7°C 86% Calm Calm 2.3 mph3.7 kmh 30.10 in1019.3 mb - 0.00 in0.0 mm 0.00 in0.0 mm
09:00 AM 53.2°F11.8°C 48.5°F9.2°C 84% Calm Calm -- 30.10 in1019.3 mb - 0.00 in0.0 mm 0.00 in0.0 mm
09:15 AM 54.5°F12.5°C 48.8°F9.3°C 81% Calm Calm -- 30.11 in1019.6 mb - 0.00 in0.0 mm 0.00 in0.0 mm
09:30 AM 56.3°F13.5°C 49.8°F9.9°C 79% 1.1 mph SW1.8 kmh SW 8.1 mph13.0 kmh 30.11 in1019.6 mb - 0.00 in0.0 mm 0.00 in0.0 mm
09:45 AM 57.8°F14.3°C 50.2°F10.1°C 76% 1.1 mph W1.8 kmh W 6.9 mph11.1 kmh 30.11 in1019.6 mb - 0.00 in0.0 mm 0.00 in0.0 mm
10:00 AM 59.1°F15.1°C 50.5°F10.3°C 73% Calm Calm 1.1 mph1.8 kmh 30.11 in1019.6 mb - 0.00 in0.0 mm 0.00 in0.0 mm
10:15 AM 58.8°F14.9°C 50.5°F10.3°C 74% 1.1 mph WSW1.8 kmh WSW 4.6 mph7.4 kmh 30.11 in1019.6 mb - 0.00 in0.0 mm 0.00 in0.0 mm
10:30 AM 60.8°F16.0°C 50.9°F10.5°C 70% Calm Calm -- 30.11 in1019.6 mb - 0.00 in0.0 mm 0.00 in0.0 mm
10:45 AM 61.9°F16.6°C 51.2°F10.7°C 68% Calm Calm -- 30.11 in1019.6 mb - 0.00 in0.0 mm 0.00 in0.0 mm
11:00 AM 64.8°F18.2°C 52.3°F11.3°C 64% Calm Calm -- 30.11 in1019.6 mb - 0.00 in0.0 mm 0.00 in0.0 mm
11:15 AM 66.3°F19.1°C 52.4°F11.3°C 61% Calm Calm -- 30.11 in1019.6 mb - 0.00 in0.0 mm 0.00 in0.0 mm
11:30 AM 65.9°F18.8°C 51.6°F10.9°C 60% 1.1 mph WSW1.8 kmh WSW 2.3 mph3.7 kmh 30.11 in1019.6 mb - 0.00 in0.0 mm 0.00 in0.0 mm
11:45 AM 66.7°F19.3°C 51.9°F11.1°C 59% 1.1 mph W1.8 kmh W 4.6 mph7.4 kmh 30.11 in1019.6 mb - 0.00 in0.0 mm 0.00 in0.0 mm
12:00 PM 67.7°F19.8°C 52.4°F11.3°C 58% 1.1 mph SSW1.8 kmh SSW 3.5 mph5.6 kmh 30.10 in1019.3 mb - 0.00 in0.0 mm 0.00 in0.0 mm
12:15 PM 69.0°F20.6°C 52.6°F11.4°C 56% Calm Calm 3.5 mph5.6 kmh 30.09 in1019.0 mb - 0.00 in0.0 mm 0.00 in0.0 mm
12:30 PM 70.1°F21.2°C 52.7°F11.5°C 54% 1.1 mph WSW1.8 kmh WSW 3.5 mph5.6 kmh 30.09 in1019.0 mb - 0.00 in0.0 mm 0.00 in0.0 mm
12:45 PM 70.9°F21.6°C 52.4°F11.3°C 52% Calm Calm 1.1 mph1.8 kmh 30.08 in1018.6 mb - 0.00 in0.0 mm 0.00 in0.0 mm
01:00 PM 71.9°F22.2°C 53.3°F11.8°C 52% 1.1 mph WSW1.8 kmh WSW 4.6 mph7.4 kmh 30.07 in1018.3 mb - 0.00 in0.0 mm 0.00 in0.0 mm
01:15 PM 72.2°F22.3°C 52.0°F11.1°C 49% Calm Calm 5.8 mph9.3 kmh 30.06 in1017.9 mb - 0.00 in0.0 mm 0.00 in0.0 mm
01:30 PM 72.9°F22.7°C 52.1°F11.2°C 48% Calm Calm 2.3 mph3.7 kmh 30.05 in1017.6 mb - 0.00 in0.0 mm 0.00 in0.0 mm
01:45 PM 73.3°F22.9°C 51.3°F10.7°C 46% 1.1 mph S1.8 kmh S 5.8 mph9.3 kmh 30.04 in1017.3 mb - 0.00 in0.0 mm 0.00 in0.0 mm
02:00 PM 74.2°F23.4°C 52.1°F11.2°C 46% 2.3 mph WNW3.7 kmh WNW 3.5 mph5.6 kmh 30.03 in1016.9 mb - 0.00 in0.0 mm 0.00 in0.0 mm
02:15 PM 74.5°F23.6°C 50.5°F10.3°C 43% 1.1 mph SSW1.8 kmh SSW 1.1 mph1.8 kmh 30.02 in1016.6 mb - 0.00 in0.0 mm 0.00 in0.0 mm
02:30 PM 74.6°F23.7°C 50.0°F10.0°C 42% 2.3 mph W3.7 kmh W 12.7 mph20.4 kmh 30.01 in1016.3 mb - 0.00 in0.0 mm 0.00 in0.0 mm
02:45 PM 74.7°F23.7°C 48.8°F9.3°C 40% 1.1 mph SW1.8 kmh SW 3.5 mph5.6 kmh 30.01 in1016.3 mb - 0.00 in0.0 mm 0.00 in0.0 mm
03:00 PM 74.8°F23.8°C 48.2°F9.0°C 39% 3.5 mph WNW5.6 kmh WNW 10.4 mph16.7 kmh 30.01 in1016.3 mb - 0.00 in0.0 mm 0.00 in0.0 mm
03:15 PM 74.8°F23.8°C 48.9°F9.4°C 40% 1.1 mph W1.8 kmh W 12.7 mph20.4 kmh 30.00 in1015.9 mb - 0.00 in0.0 mm 0.00 in0.0 mm
03:30 PM 74.8°F23.8°C 48.2°F9.0°C 39% 1.1 mph WSW1.8 kmh WSW 8.1 mph13.0 kmh 30.00 in1015.9 mb - 0.00 in0.0 mm 0.00 in0.0 mm
03:45 PM 74.3°F23.5°C 49.7°F9.8°C 42% 1.1 mph W1.8 kmh W 11.5 mph18.5 kmh 30.00 in1015.9 mb - 0.00 in0.0 mm 0.00 in0.0 mm
04:00 PM 74.1°F23.4°C 49.5°F9.7°C 42% 3.5 mph S5.6 kmh S 6.9 mph11.1 kmh 30.00 in1015.9 mb - 0.00 in0.0 mm 0.00 in0.0 mm
04:15 PM 73.4°F23.0°C 49.6°F9.8°C 43% 1.1 mph S1.8 kmh S 4.6 mph7.4 kmh 30.00 in1015.9 mb - 0.00 in0.0 mm 0.00 in0.0 mm
04:30 PM 72.6°F22.6°C 49.5°F9.7°C 44% 1.1 mph SW1.8 kmh SW 4.6 mph7.4 kmh 30.00 in1015.9 mb - 0.00 in0.0 mm 0.00 in0.0 mm
04:45 PM 72.4°F22.4°C 50.4°F10.2°C 46% 2.3 mph WSW3.7 kmh WSW 5.8 mph9.3 kmh 30.00 in1015.9 mb - 0.00 in0.0 mm 0.00 in0.0 mm
05:00 PM 72.0°F22.2°C 48.9°F9.4°C 44% 2.3 mph WSW3.7 kmh WSW 4.6 mph7.4 kmh 30.00 in1015.9 mb - 0.00 in0.0 mm 0.00 in0.0 mm
05:15 PM 71.6°F22.0°C 49.7°F9.8°C 46% 1.1 mph WSW1.8 kmh WSW 5.8 mph9.3 kmh 30.00 in1015.9 mb - 0.00 in0.0 mm 0.00 in0.0 mm
05:30 PM 71.2°F21.8°C 49.9°F9.9°C 47% 2.3 mph S3.7 kmh S 9.2 mph14.8 kmh 30.01 in1016.3 mb - 0.00 in0.0 mm 0.00 in0.0 mm
05:45 PM 70.4°F21.3°C 50.3°F10.2°C 49% 1.1 mph SSE1.8 kmh SSE 3.5 mph5.6 kmh 30.01 in1016.3 mb - 0.00 in0.0 mm 0.00 in0.0 mm
06:00 PM 69.8°F21.0°C 50.3°F10.2°C 50% 1.1 mph WNW1.8 kmh WNW 1.1 mph1.8 kmh 30.02 in1016.6 mb - 0.00 in0.0 mm 0.00 in0.0 mm
06:15 PM 69.2°F20.7°C 50.8°F10.4°C 52% Calm Calm 4.6 mph7.4 kmh 30.02 in1016.6 mb - 0.00 in0.0 mm 0.00 in0.0 mm
06:30 PM 68.4°F20.2°C 51.1°F10.6°C 54% 1.1 mph SW1.8 kmh SW 3.5 mph5.6 kmh 30.03 in1016.9 mb - 0.00 in0.0 mm 0.00 in0.0 mm
06:45 PM 67.2°F19.6°C 51.0°F10.6°C 56% Calm Calm 3.5 mph5.6 kmh 30.03 in1016.9 mb - 0.00 in0.0 mm 0.00 in0.0 mm
07:00 PM 66.2°F19.0°C 51.4°F10.8°C 59% Calm Calm -- 30.03 in1016.9 mb - 0.00 in0.0 mm 0.00 in0.0 mm
07:15 PM 65.2°F18.4°C 50.5°F10.3°C 59% Calm Calm -- 30.03 in1016.9 mb - 0.00 in0.0 mm 0.00 in0.0 mm
07:30 PM 64.5°F18.1°C 50.7°F10.4°C 61% Calm Calm -- 30.04 in1017.3 mb - 0.00 in0.0 mm 0.00 in0.0 mm
07:45 PM 64.1°F17.8°C 50.4°F10.2°C 61% Calm Calm 2.3 mph3.7 kmh 30.05 in1017.6 mb - 0.00 in0.0 mm 0.00 in0.0 mm
08:00 PM 63.1°F17.3°C 50.3°F10.2°C 63% Calm Calm -- 30.05 in1017.6 mb - 0.00 in0.0 mm 0.00 in0.0 mm
08:15 PM 61.2°F16.2°C 50.1°F10.1°C 67% Calm Calm -- 30.05 in1017.6 mb - 0.00 in0.0 mm 0.00 in0.0 mm
08:30 PM 59.2°F15.1°C 49.8°F9.9°C 71% Calm Calm -- 30.06 in1017.9 mb - 0.00 in0.0 mm 0.00 in0.0 mm
08:45 PM 60.0°F15.6°C 49.8°F9.9°C 69% Calm Calm -- 30.06 in1017.9 mb - 0.00 in0.0 mm 0.00 in0.0 mm
09:00 PM 60.4°F15.8°C 50.2°F10.1°C 69% Calm Calm -- 30.06 in1017.9 mb - 0.00 in0.0 mm 0.00 in0.0 mm
09:15 PM 59.0°F15.0°C 49.6°F9.8°C 71% Calm Calm -- 30.07 in1018.3 mb - 0.00 in0.0 mm 0.00 in0.0 mm
09:30 PM 58.5°F14.7°C 49.9°F9.9°C 73% Calm Calm -- 30.07 in1018.3 mb - 0.00 in0.0 mm 0.00 in0.0 mm
09:45 PM 58.1°F14.5°C 49.9°F9.9°C 74% Calm Calm 1.1 mph1.8 kmh 30.07 in1018.3 mb - 0.00 in0.0 mm 0.00 in0.0 mm
10:00 PM 58.5°F14.7°C 49.9°F9.9°C 73% Calm Calm -- 30.07 in1018.3 mb - 0.00 in0.0 mm 0.00 in0.0 mm
10:15 PM 57.4°F14.1°C 49.5°F9.7°C 75% Calm Calm -- 30.08 in1018.6 mb - 0.00 in0.0 mm 0.00 in0.0 mm
10:30 PM 56.3°F13.5°C 49.5°F9.7°C 78% Calm Calm -- 30.08 in1018.6 mb - 0.00 in0.0 mm 0.00 in0.0 mm
10:45 PM 55.7°F13.2°C 49.3°F9.6°C 79% Calm Calm -- 30.09 in1019.0 mb - 0.00 in0.0 mm 0.00 in0.0 mm
11:00 PM 55.5°F13.1°C 49.1°F9.5°C 79% Calm Calm -- 30.09 in1019.0 mb - 0.00 in0.0 mm 0.00 in0.0 mm
11:15 PM 55.5°F13.1°C 49.4°F9.7°C 80% Calm Calm -- 30.09 in1019.0 mb - 0.00 in0.0 mm 0.00 in0.0 mm
11:30 PM 55.9°F13.3°C 50.1°F10.1°C 81% Calm Calm -- 30.09 in1019.0 mb - 0.00 in0.0 mm 0.00 in0.0 mm
11:45 PM 56.2°F13.4°C 50.1°F10.1°C 80% Calm Calm -- 30.10 in1019.3 mb - 0.00 in0.0 mm 0.00 in0.0 mm